Time;durP1;ratioP1;P1;durP2;ratioP2;P2;SDS_P1;SDS_P2;PMS_P1;PMS_P2;Temp;Humidity;BMP_temperature;BMP_pressure;BME280_temperature;BME280_humidity;BME280_pressure;Samples;Min_cycle;Max_cycle;Signal;HPM_P1;HPM_P2
2023/10/01 00:00:06;;;;;;;;;;;;;;;22.45;32.95;98904.34;5044006;28;19921;-76
2023/10/01 00:02:34;;;;;;;;;;;;;;;22.48;33.01;98904.78;5023037;28;19917;-76
2023/10/01 00:05:00;;;;;;;;;;;;;;;22.50;33.00;98905.44;5040034;28;19940;-76
2023/10/01 00:07:28;;;;;;;;;;;;;;;22.53;32.96;98899.75;5036444;28;19918;-76
2023/10/01 00:09:54;;;;;;;;;;;;;;;22.57;32.89;98900.19;5035636;28;19917;-76
2023/10/01 00:12:22;;;;;;;;;;;;;;;22.59;32.96;98888.31;5032172;28;19976;-76
2023/10/01 00:14:47;;;;;;;;;;;;;;;22.61;32.88;98888.13;5031576;28;20435;-76
2023/10/01 00:17:13;;;;;;;;;;;;;;;22.62;32.92;98889.78;5031145;28;19933;-76
2023/10/01 00:19:38;;;;;;;;;;;;;;;22.65;33.06;98886.75;5030756;28;19960;-76
2023/10/01 00:22:04;;;;;;;;;;;;;;;22.67;32.74;98889.22;5032323;28;20054;-76
2023/10/01 00:24:29;;;;;;;;;;;;;;;22.67;32.77;98884.69;5032216;28;20365;-76
2023/10/01 00:26:54;;;;;;;;;;;;;;;22.67;32.96;98889.22;5014171;28;19917;-76
2023/10/01 00:29:21;;;;;;;;;;;;;;;22.68;32.55;98890.88;5032699;28;19967;-76
2023/10/01 00:31:47;;;;;;;;;;;;;;;22.66;33.06;98882.22;5015101;28;19925;-76
2023/10/01 00:34:12;;;;;;;;;;;;;;;22.64;32.93;98878.94;5031075;28;20015;-76
2023/10/01 00:36:37;;;;;;;;;;;;;;;22.62;32.91;98871.16;5032678;28;19952;-76
2023/10/01 00:39:03;;;;;;;;;;;;;;;22.62;32.87;98880.97;5014742;28;19921;-75
2023/10/01 00:41:28;;;;;;;;;;;;;;;22.61;32.77;98879.31;5014713;28;19917;-75
2023/10/01 00:43:55;;;;;;;;;;;;;;;22.61;33.09;98871.34;5031211;28;20012;-75
2023/10/01 00:46:21;;;;;;;;;;;;;;;22.59;32.95;98879.50;5033389;28;19928;-76
2023/10/01 00:48:47;;;;;;;;;;;;;;;22.59;32.88;98876.84;5018177;28;19917;-76
2023/10/01 00:51:12;;;;;;;;;;;;;;;22.59;33.12;98874.19;5034697;28;20355;-77
2023/10/01 00:53:38;;;;;;;;;;;;;;;22.57;33.02;98878.91;5035086;28;19917;-76
2023/10/01 00:56:04;;;;;;;;;;;;;;;22.53;33.16;98886.44;5034379;28;19943;-76
2023/10/01 00:58:29;;;;;;;;;;;;;;;22.52;33.01;98873.34;5034337;28;19921;-77
2023/10/01 01:00:55;;;;;;;;;;;;;;;22.50;33.02;98870.03;5034752;28;19960;-76
2023/10/01 01:03:22;;;;;;;;;;;;;;;22.48;33.35;98870.22;5034394;28;20023;-76
2023/10/01 01:05:57;;;;;;;;;;;;;;;22.45;33.08;98861.78;5034164;28;19921;-76
2023/10/01 01:08:27;;;;;;;;;;;;;;;22.42;33.20;98864.84;5034625;28;19975;-76
2023/10/01 01:10:53;;;;;;;;;;;;;;;22.40;33.57;98852.53;5034439;28;19921;-76
2023/10/01 01:13:18;;;;;;;;;;;;;;;22.40;33.32;98854.38;5034439;28;20010;-76
2023/10/01 01:15:45;;;;;;;;;;;;;;;22.40;33.34;98852.53;5033612;28;20293;-76
2023/10/01 01:18:13;;;;;;;;;;;;;;;22.39;33.44;98863.38;5018060;28;19917;-76
2023/10/01 01:20:43;;;;;;;;;;;;;;;22.39;33.32;98853.56;5034100;28;19924;-75
2023/10/01 01:23:13;;;;;;;;;;;;;;;22.39;33.44;98850.06;5033954;28;20344;-76
2023/10/01 01:25:39;;;;;;;;;;;;;;;22.38;33.70;98851.09;5035366;28;19918;-76
2023/10/01 01:28:12;;;;;;;;;;;;;;;22.38;33.72;98851.09;5034379;28;20004;-76
2023/10/01 01:30:41;;;;;;;;;;;;;;;22.38;33.65;98851.09;5033984;28;19924;-76
2023/10/01 01:33:07;;;;;;;;;;;;;;;22.37;33.83;98844.13;5034437;28;19925;-76
2023/10/01 01:35:35;;;;;;;;;;;;;;;22.35;34.13;98831.03;5034428;28;19921;-76
2023/10/01 01:38:01;;;;;;;;;;;;;;;22.36;33.73;98839.81;5034250;28;20032;-76
2023/10/01 01:40:31;;;;;;;;;;;;;;;22.35;33.79;98835.53;5031401;28;20012;-77
2023/10/01 01:42:57;;;;;;;;;;;;;;;22.36;33.93;98831.84;5014395;28;19921;-76
2023/10/01 01:45:27;;;;;;;;;;;;;;;22.33;33.76;98838.38;5014648;28;20016;-76
2023/10/01 01:47:53;;;;;;;;;;;;;;;22.33;33.95;98835.72;5014274;28;19917;-75
2023/10/01 01:50:19;;;;;;;;;;;;;;;22.33;34.29;98829.56;5014240;28;19925;-75
2023/10/01 01:52:49;;;;;;;;;;;;;;;22.33;33.99;98826.91;5013533;28;19917;-75
2023/10/01 01:55:27;;;;;;;;;;;;;;;22.31;34.15;98824.47;5014061;28;19971;-75
2023/10/01 01:58:15;;;;;;;;;;;;;;;22.29;34.07;98833.59;4999023;28;20324;-76
2023/10/01 02:01:01;;;;;;;;;;;;;;;22.30;34.03;98832.63;5014352;28;19964;-75
2023/10/01 02:03:26;;;;;;;;;;;;;;;22.28;34.10;98832.78;5014116;28;19925;-75
2023/10/01 02:05:52;;;;;;;;;;;;;;;22.27;34.04;98836.44;5014974;28;19923;-76
2023/10/01 02:08:23;;;;;;;;;;;;;;;22.25;34.31;98841.13;5015395;28;19922;-75
2023/10/01 02:10:54;;;;;;;;;;;;;;;22.25;34.11;98846.47;5012954;28;20476;-76
2023/10/01 02:13:21;;;;;;;;;;;;;;;22.25;33.91;98843.78;5013609;28;20317;-76
2023/10/01 02:15:46;;;;;;;;;;;;;;;22.24;33.80;98844.81;5014372;28;20028;-77
2023/10/01 02:18:16;;;;;;;;;;;;;;;22.22;34.24;98845.00;5013921;28;20489;-76
2023/10/01 02:20:44;;;;;;;;;;;;;;;22.17;34.36;98835.91;5013782;28;19924;-76
2023/10/01 02:23:12;;;;;;;;;;;;;;;22.16;34.29;98831.63;5013405;28;19991;-76
2023/10/01 02:25:45;;;;;;;;;;;;;;;22.14;34.44;98830.97;5013753;28;20316;-76
2023/10/01 02:28:13;;;;;;;;;;;;;;;22.13;34.38;98824.03;5013673;28;19918;-76
2023/10/01 02:30:41;;;;;;;;;;;;;;;;;;5013465;28;19925;-76
2023/10/01 02:33:16;;;;;;;;;;;;;;;;;;5014156;28;19925;-75
2023/10/01 02:35:41;;;;;;;;;;;;;;;22.10;34.65;98833.22;5013788;28;19924;-76
2023/10/01 02:38:07;;;;;;;;;;;;;;;22.09;34.52;98828.91;5013502;28;19917;-77
2023/10/01 02:40:40;;;;;;;;;;;;;;;22.06;34.68;98823.97;5012661;28;19917;-75
2023/10/01 02:43:08;;;;;;;;;;;;;;;22.07;34.75;98819.47;5015249;28;19921;-75
2023/10/01 02:45:35;;;;;;;;;;;;;;;22.04;34.50;98820.66;5014515;28;19918;-76
2023/10/01 02:48:18;;;;;;;;;;;;;;;22.02;34.56;98823.50;5012038;28;20318;-76
2023/10/01 02:50:54;;;;;;;;;;;;;;;22.03;34.58;98821.69;5013385;28;19917;-76
2023/10/01 02:53:21;;;;;;;;;;;;;;;22.03;34.58;98824.34;5014727;28;19917;-76
2023/10/01 02:55:46;;;;;;;;;;;;;;;22.03;34.41;98819.84;5012832;28;19917;-76
2023/10/01 02:58:20;;;;;;;;;;;;;;;22.02;34.85;98820.84;5012288;28;20406;-77
2023/10/01 03:00:46;;;;;;;;;;;;;;;22.02;34.63;98822.69;5012588;28;20412;-77
2023/10/01 03:03:15;;;;;;;;;;;;;;;22.02;34.86;98822.69;5012984;28;19918;-77
2023/10/01 03:05:43;;;;;;;;;;;;;;;22.02;34.76;98825.34;5012808;28;19925;-77
2023/10/01 03:08:12;;;;;;;;;;;;;;;22.00;34.79;98817.56;5012074;28;19918;-76
2023/10/01 03:10:38;;;;;;;;;;;;;;;21.99;34.64;98815.91;5012368;28;19925;-75
2023/10/01 03:13:16;;;;;;;;;;;;;;;22.02;34.63;98822.69;5012580;28;19917;-75
2023/10/01 03:15:44;;;;;;;;;;;;;;;22.00;34.89;98820.22;4997876;28;19917;-75
2023/10/01 03:18:34;;;;;;;;;;;;;;;22.01;34.83;98821.03;5011966;28;20432;-75
2023/10/01 03:26:05;;;;;;;;;;;;;;;22.02;34.77;98822.69;5013688;28;19956;-75
2023/10/01 03:29:14;;;;;;;;;;;;;;;22.03;34.62;98833.16;5012874;28;19991;-75
2023/10/01 03:31:20;;;;;;;;;;;;;;;22.08;34.47;98835.25;5012541;28;19948;-75
2023/10/01 03:33:45;;;;;;;;;;;;;;;22.12;34.42;98833.84;4996025;28;19917;-75
2023/10/01 03:36:11;;;;;;;;;;;;;;;22.13;34.17;98832.00;5013823;28;19984;-75
2023/10/01 03:38:42;;;;;;;;;;;;;;;22.15;34.42;98833.44;5012275;28;19987;-75
2023/10/01 03:41:08;;;;;;;;;;;;;;;22.18;34.33;98843.72;4996279;28;19918;-74
2023/10/01 03:43:36;;;;;;;;;;;;;;;22.17;34.42;98847.41;5013466;28;19949;-74
2023/10/01 03:51:52;;;;;;;;;;;;;;;22.22;34.01;98850.31;5050757;28;19956;-75
2023/10/01 03:54:26;;;;;;;;;;;;;;;22.23;33.96;98851.97;5050285;28;19916;-75
2023/10/01 03:56:57;;;;;;;;;;;;;;;22.25;33.84;98845.63;5034597;28;19955;-74
2023/10/01 03:59:27;;;;;;;;;;;;;;;22.27;33.76;98848.94;5035131;28;19920;-74
2023/10/01 04:01:58;;;;;;;;;;;;;;;22.28;34.15;98855.88;5034025;28;19917;-75
2023/10/01 04:04:56;;;;;;;;;;;;;;;22.31;33.68;98855.53;5034514;28;19968;-75
2023/10/01 04:07:18;;;;;;;;;;;;;;;22.30;33.53;98853.91;5050538;28;19917;-77
2023/10/01 04:09:46;;;;;;;;;;;;;;;22.32;33.47;98862.50;5033908;28;19917;-75
2023/10/01 04:12:27;;;;;;;;;;;;;;;22.35;33.98;98859.47;5033933;28;19952;-75
2023/10/01 04:14:53;;;;;;;;;;;;;;;22.38;33.90;98859.09;5041863;28;19920;-76
2023/10/01 04:17:19;;;;;;;;;;;;;;;22.40;33.65;98862.38;5043997;28;19916;-78
2023/10/01 04:20:00;;;;;;;;;;;;;;;22.42;33.55;98870.16;5062618;28;19916;-77
2023/10/01 04:22:25;;;;;;;;;;;;;;;22.45;33.67;98864.47;5047193;28;19917;-76
2023/10/01 04:25:00;;;;;;;;;;;;;;;22.47;33.61;98863.25;5017411;28;19921;-77
2023/10/01 04:27:30;;;;;;;;;;;;;;;22.49;33.52;98861.22;5002742;28;19923;-77
2023/10/01 04:30:00;;;;;;;;;;;;;;;22.53;33.59;98857.19;5023889;28;19929;-77
2023/10/01 04:32:28;;;;;;;;;;;;;;;22.58;33.29;98861.91;5025023;28;19917;-76
2023/10/01 04:34:54;;;;;;;;;;;;;;;22.69;33.29;98865.88;5035173;28;20327;-77
2023/10/01 04:37:36;;;;;;;;;;;;;;;23.09;32.51;98868.88;5027800;28;19968;-75
2023/10/01 04:40:03;;;;;;;;;;;;;;;23.64;31.83;98863.63;5016485;28;19922;-77
2023/10/01 04:42:28;;;;;;;;;;;;;;;24.15;31.00;98873.06;5015573;28;20012;-76
2023/10/01 04:44:54;;;;;;;;;;;;;;;24.61;30.12;98880.34;5015147;28;20019;-75
2023/10/01 04:47:41;;;;;;;;;;;;;;;25.10;29.27;98864.91;5015437;28;20340;-76
2023/10/01 04:50:06;;;;;;;;;;;;;;;25.67;28.45;98875.06;5015008;28;20364;-76
2023/10/01 04:52:32;;;;;;;;;;;;;;;26.15;27.79;98878.13;5015154;28;19918;-76
2023/10/01 04:54:58;;;;;;;;;;;;;;;26.63;26.85;98876.78;5016155;28;19925;-77
2023/10/01 04:57:25;;;;;;;;;;;;;;;27.11;26.05;98874.56;5015055;28;20019;-77
2023/10/01 04:59:56;;;;;;;;;;;;;;;27.56;25.94;98885.00;5014416;28;19994;-75
2023/10/01 05:02:22;;;;;;;;;;;;;;;28.01;25.33;98889.25;4999168;28;20393;-76
2023/10/01 05:04:47;;;;;;;;;;;;;;;28.41;24.80;98889.47;5016185;28;20004;-76
2023/10/01 05:07:15;;;;;;;;;;;;;;;28.76;24.24;98880.69;5015609;28;19972;-76
2023/10/01 05:09:42;;;;;;;;;;;;;;;29.12;23.58;98878.84;4999182;28;19964;-77
2023/10/01 05:12:08;;;;;;;;;;;;;;;29.47;23.45;98885.25;4998190;28;19921;-76
2023/10/01 05:14:52;;;;;;;;;;;;;;;29.79;23.31;98885.66;5016385;28;20345;-79
2023/10/01 05:17:17;;;;;;;;;;;;;;;30.12;23.20;98889.50;5015849;28;19924;-72
2023/10/01 05:19:43;;;;;;;;;;;;;;;30.42;22.81;98891.97;5016154;28;20304;-72
2023/10/01 05:22:08;;;;;;;;;;;;;;;30.80;22.56;98895.81;5016615;28;19974;-75
2023/10/01 05:24:39;;;;;;;;;;;;;;;31.16;22.28;98895.56;5013179;28;20305;-76
2023/10/01 05:27:28;;;;;;;;;;;;;;;31.49;22.05;98891.16;5014489;28;19999;-76
2023/10/01 05:29:50;;;;;;;;;;;;;;;31.82;21.97;98886.69;5013808;28;19921;-75
2023/10/01 05:32:18;;;;;;;;;;;;;;;32.02;21.51;98889.63;5012581;28;19928;-76
2023/10/01 05:34:47;;;;;;;;;;;;;;;32.28;21.35;98890.72;5015310;28;19975;-76
2023/10/01 05:37:20;;;;;;;;;;;;;;;32.50;21.09;98899.81;4998314;28;19940;-76
2023/10/01 05:39:55;;;;;;;;;;;;;;;32.72;20.78;98902.47;5015547;28;19988;-75
2023/10/01 05:42:24;;;;;;;;;;;;;;;32.88;20.53;98904.22;5015279;28;19984;-77
2023/10/01 05:44:50;;;;;;;;;;;;;;;33.07;20.35;98904.63;5015153;28;19922;-77
2023/10/01 05:47:17;;;;;;;;;;;;;;;33.19;20.09;98896.31;5013691;28;19924;-72
2023/10/01 05:49:49;;;;;;;;;;;;;;;33.60;20.02;98904.66;5015089;28;19924;-79
2023/10/01 05:52:15;;;;;;;;;;;;;;;33.95;19.56;98895.03;5013447;28;20412;-80
2023/10/01 05:54:50;;;;;;;;;;;;;;;34.30;19.52;98903.53;4997362;28;19944;-80
2023/10/01 05:57:16;;;;;;;;;;;;;;;34.63;19.24;98904.09;4997593;28;19981;-80
2023/10/01 05:59:42;;;;;;;;;;;;;;;34.88;19.00;98908.72;5013234;28;19921;-79
2023/10/01 06:02:07;;;;;;;;;;;;;;;35.08;18.80;98905.97;5014798;28;19917;-79
2023/10/01 06:04:32;;;;;;;;;;;;;;;35.33;18.30;98910.56;5013372;28;19925;-80
2023/10/01 06:07:02;;;;;;;;;;;;;;;35.55;18.27;98914.00;5013682;28;19917;-81
2023/10/01 06:09:33;;;;;;;;;;;;;;;35.75;17.88;98908.53;5013370;28;19918;-80
2023/10/01 06:12:03;;;;;;;;;;;;;;;35.93;17.58;98906.25;5013700;28;19917;-78
2023/10/01 06:14:41;;;;;;;;;;;;;;;36.21;17.45;98907.44;5014981;28;19918;-79
2023/10/01 06:17:08;;;;;;;;;;;;;;;36.27;17.14;98911.78;5033470;28;20016;-77
2023/10/01 06:19:33;;;;;;;;;;;;;;;36.42;17.14;98910.03;5032758;28;19918;-77
2023/10/01 06:22:12;;;;;;;;;;;;;;;36.55;16.91;98909.41;5033203;28;19917;-77
2023/10/01 06:24:43;;;;;;;;;;;;;;;36.80;16.94;98915.75;5023267;28;20282;-80
2023/10/01 06:27:09;;;;;;;;;;;;;;;36.96;16.47;98914.53;5013611;28;20035;-76
2023/10/01 06:29:44;;;;;;;;;;;;;;;37.05;16.98;98904.63;5012928;28;19946;-77
2023/10/01 06:32:13;;;;;;;;;;;;;;;37.20;16.88;98911.81;5015408;28;19949;-78
2023/10/01 06:34:39;;;;;;;;;;;;;;;37.36;16.03;98919.84;5015815;28;19968;-84
2023/10/01 06:37:05;;;;;;;;;;;;;;;37.45;16.22;98912.66;5016883;28;19960;-85
2023/10/01 06:39:32;;;;;;;;;;;;;;;37.56;15.69;98919.59;5032752;28;19956;-84
2023/10/01 06:42:18;;;;;;;;;;;;;;;37.68;16.08;98913.72;5033404;28;19921;-83
2023/10/01 06:44:43;;;;;;;;;;;;;;;37.86;15.47;98920.34;5036259;28;20277;-87
2023/10/01 06:47:14;;;;;;;;;;;;;;;37.98;15.50;98909.00;5036987;28;19917;-82
2023/10/01 06:50:07;;;;;;;;;;;;;;;38.07;15.72;98920.06;5033160;28;19964;-84
2023/10/01 06:52:41;;;;;;;;;;;;;;;38.25;15.76;98913.81;5034103;28;19949;-83
2023/10/01 06:55:07;;;;;;;;;;;;;;;38.37;15.22;98924.25;5033636;28;19965;-84
2023/10/01 06:57:33;;;;;;;;;;;;;;;38.47;15.46;98929.53;5032785;28;19917;-82
2023/10/01 06:59:59;;;;;;;;;;;;;;;38.58;14.99;98935.66;5033131;28;19920;-81
2023/10/01 07:02:25;;;;;;;;;;;;;;;38.72;15.09;98925.63;5033881;28;19924;-83
2023/10/01 07:04:56;;;;;;;;;;;;;;;38.79;15.13;98927.94;5015921;28;19929;-84
2023/10/01 07:07:22;;;;;;;;;;;;;;;38.93;14.65;98924.47;5032750;28;19918;-84
2023/10/01 07:09:47;;;;;;;;;;;;;;;39.01;14.66;98940.13;5034575;28;19999;-85
2023/10/01 07:12:12;;;;;;;;;;;;;;;39.11;14.71;98930.97;5034993;28;20410;-82
2023/10/01 07:14:44;;;;;;;;;;;;;;;39.25;14.67;98939.97;5033193;28;20371;-85
2023/10/01 07:17:18;;;;;;;;;;;;;;;39.38;14.64;98939.19;5033852;28;19924;-87
2023/10/01 07:19:45;;;;;;;;;;;;;;;39.41;14.80;98944.03;5017753;28;20390;-87
2023/10/01 07:22:11;;;;;;;;;;;;;;;39.53;14.85;98948.22;5034783;28;20312;-88
2023/10/01 07:24:36;;;;;;;;;;;;;;;39.59;14.42;98941.53;5022763;28;19917;-85
2023/10/01 07:27:11;;;;;;;;;;;;;;;39.66;14.51;98955.59;5013581;28;20041;-82
2023/10/01 07:29:41;;;;;;;;;;;;;;;39.74;14.66;98948.59;5012984;28;20400;-82
2023/10/01 07:32:07;;;;;;;;;;;;;;;39.85;14.02;98949.19;5014167;28;19983;-83
2023/10/01 07:34:35;;;;;;;;;;;;;;;40.08;13.91;98950.91;5013901;28;19918;-83
2023/10/01 07:37:04;;;;;;;;;;;;;;;40.28;13.86;98955.09;5028689;28;19921;-83
2023/10/01 07:39:36;;;;;;;;;;;;;;;40.39;13.79;98966.63;5012035;28;19917;-85
2023/10/01 07:42:04;;;;;;;;;;;;;;;40.49;13.59;98957.38;5012476;28;20400;-85
2023/10/01 07:44:35;;;;;;;;;;;;;;;40.59;13.49;98961.78;5029254;28;20428;-85
2023/10/01 07:47:02;;;;;;;;;;;;;;;40.62;13.40;98961.97;5013328;28;19928;-85
2023/10/01 07:49:47;;;;;;;;;;;;;;;40.68;13.33;98965.41;5028141;28;20381;-85
2023/10/01 07:52:13;;;;;;;;;;;;;;;40.92;13.12;98967.81;4997920;28;19933;-86
2023/10/01 07:54:39;;;;;;;;;;;;;;;41.32;12.77;98962.41;5010741;28;19968;-85
2023/10/01 07:57:08;;;;;;;;;;;;;;;41.94;12.56;98974.34;5011541;28;19918;-82
2023/10/01 07:59:36;;;;;;;;;;;;;;;42.17;12.35;98975.06;5011153;28;20380;-84
2023/10/01 08:03:28;;;;;;;;;;;;;;;42.12;12.09;98975.22;5012405;28;19917;-86
2023/10/01 08:07:22;;;;;;;;;;;;;;;41.78;12.39;98976.75;5011757;28;20410;-83
2023/10/01 08:09:57;;;;;;;;;;;;;;;41.69;12.06;98979.47;5015620;28;19918;-87
2023/10/01 08:15:15;;;;;;;;;;;;;;;42.89;11.11;98972.78;5011834;28;19967;-86
2023/10/01 08:17:43;;;;;;;;;;;;;;;43.45;10.63;98980.25;5030747;28;20332;-88
2023/10/01 08:20:17;;;;;;;;;;;;;;;43.41;10.66;98979.28;5020147;28;19917;-88
2023/10/01 08:23:12;;;;;;;;;;;;;;;43.21;10.13;98976.09;5017095;28;20385;-88
2023/10/01 08:25:32;;;;;;;;;;;;;;;42.83;10.80;98977.63;5015112;28;20434;-86
2023/10/01 08:30:43;;;;;;;;;;;;;;;42.76;10.54;98977.31;5017279;28;19922;-87
2023/10/01 08:33:32;;;;;;;;;;;;;;;42.83;10.67;98983.13;5014582;28;19956;-89
2023/10/01 08:35:57;;;;;;;;;;;;;;;42.73;10.32;98977.16;5014198;28;19924;-87
2023/10/01 08:38:29;;;;;;;;;;;;;;;42.72;10.43;98975.56;5015266;28;19925;-89
2023/10/01 08:40:55;;;;;;;;;;;;;;;42.72;10.30;98981.84;5024821;28;19901;-90
2023/10/01 08:43:21;;;;;;;;;;;;;;;42.66;10.48;98981.22;5015714;28;19933;-81
2023/10/01 08:45:47;;;;;;;;;;;;;;;42.61;9.70;98986.88;5012160;28;19925;-82
2023/10/01 08:48:17;;;;;;;;;;;;;;;42.43;10.54;98977.81;5013691;28;19922;-79
2023/10/01 08:50:45;;;;;;;;;;;;;;;42.19;11.07;98972.81;5011397;28;20301;-78
2023/10/01 08:53:10;;;;;;;;;;;;;;;42.24;11.22;98985.56;5011003;28;20001;-79
2023/10/01 08:55:40;;;;;;;;;;;;;;;42.25;10.84;98993.47;4996074;28;19922;-84
2023/10/01 08:58:15;;;;;;;;;;;;;;;42.23;11.28;98994.94;5011666;28;19924;-77
2023/10/01 09:00:49;;;;;;;;;;;;;;;42.26;10.98;98986.84;5011884;28;19921;-79
2023/10/01 09:03:26;;;;;;;;;;;;;;;42.19;11.08;98980.22;5012238;28;20067;-83
2023/10/01 09:06:01;;;;;;;;;;;;;;;42.23;10.75;98976.53;5012039;28;20012;-77
2023/10/01 09:08:29;;;;;;;;;;;;;;;42.09;10.58;98984.06;5005925;28;19935;-79
2023/10/01 09:10:54;;;;;;;;;;;;;;;41.94;11.04;98982.59;5034963;28;19925;-78
2023/10/01 09:13:23;;;;;;;;;;;;;;;41.88;10.76;98990.16;5037765;28;19921;-79
2023/10/01 09:15:53;;;;;;;;;;;;;;;41.91;10.88;98996.97;5019902;28;20016;-79
2023/10/01 09:18:22;;;;;;;;;;;;;;;41.79;11.29;98989.34;5038611;28;20380;-81
2023/10/01 09:21:06;;;;;;;;;;;;;;;41.78;10.96;98989.66;5036842;28;19924;-77
2023/10/01 09:23:56;;;;;;;;;;;;;;;41.67;11.04;98989.09;5020013;28;19928;-80
2023/10/01 09:26:42;;;;;;;;;;;;;;;41.51;11.61;98994.22;5015633;28;20007;-76
2023/10/01 09:29:23;;;;;;;;;;;;;;;41.41;11.29;98996.09;5015309;28;19918;-80
2023/10/01 09:31:52;;;;;;;;;;;;;;;41.33;11.61;98985.13;5013910;28;20392;-82
2023/10/01 09:34:31;;;;;;;;;;;;;;;41.25;11.79;98985.88;5015308;28;20004;-79
2023/10/01 09:36:56;;;;;;;;;;;;;;;41.16;11.40;98977.59;5030293;28;19972;-81
2023/10/01 09:39:32;;;;;;;;;;;;;;;41.05;11.82;98988.00;5034970;28;19956;-85
2023/10/01 09:41:57;;;;;;;;;;;;;;;40.97;11.92;98992.31;5018989;28;19943;-79
2023/10/01 09:44:22;;;;;;;;;;;;;;;40.87;11.85;98989.84;5034370;28;19917;-79
2023/10/01 09:46:48;;;;;;;;;;;;;;;40.81;11.78;98982.84;5036202;28;19991;-81
2023/10/01 09:49:21;;;;;;;;;;;;;;;40.68;13.06;98987.28;5033958;28;19920;-78
2023/10/01 09:51:46;;;;;;;;;;;;;;;40.44;14.06;98980.19;5033977;28;19917;-76
2023/10/01 09:54:11;;;;;;;;;;;;;;;40.36;13.57;98983.63;5016747;28;19983;-77
2023/10/01 09:59:08;;;;;;;;;;;;;;;40.01;14.52;98983.31;5035564;28;20344;-80
2023/10/01 10:01:35;;;;;;;;;;;;;;;39.86;14.58;98981.69;5034004;28;20006;-77
2023/10/01 10:04:01;;;;;;;;;;;;;;;39.64;15.16;98992.53;5017833;28;19982;-78
2023/10/01 10:06:27;;;;;;;;;;;;;;;39.69;15.08;98982.28;5033973;28;19917;-78
2023/10/01 10:09:25;;;;;;;;;;;;;;;39.56;14.75;98977.66;5034300;28;19924;-77
2023/10/01 10:11:43;;;;;;;;;;;;;;;39.40;14.90;98986.09;5033827;28;20019;-78
2023/10/01 10:14:25;;;;;;;;;;;;;;;39.27;14.95;98992.38;5033927;28;20012;-77
2023/10/01 10:17:18;;;;;;;;;;;;;;;39.03;14.92;98987.84;5035628;28;19921;-79
2023/10/01 10:20:15;;;;;;;;;;;;;;;38.77;14.85;98978.47;5019489;28;19967;-77
2023/10/01 10:23:02;;;;;;;;;;;;;;;38.70;14.50;98973.41;5035230;28;19927;-78
2023/10/01 10:25:27;;;;;;;;;;;;;;;38.58;14.56;98973.81;5035518;28;19917;-79
2023/10/01 10:27:52;;;;;;;;;;;;;;;38.49;14.56;98978.31;5035533;28;19917;-77
2023/10/01 10:30:21;;;;;;;;;;;;;;;38.34;14.48;98971.19;5033374;28;20422;-78
2023/10/01 10:33:05;;;;;;;;;;;;;;;38.33;14.62;98964.13;5033774;28;19917;-78
2023/10/01 10:35:31;;;;;;;;;;;;;;;38.23;14.50;98956.91;5033644;28;19921;-78
2023/10/01 10:37:56;;;;;;;;;;;;;;;38.00;14.64;98970.28;5034703;28;20000;-77
2023/10/01 10:42:47;;;;;;;;;;;;;;;37.84;14.98;98952.50;5034455;28;19921;-80
2023/10/01 10:45:22;;;;;;;;;;;;;;;37.63;14.78;98955.44;5033520;28;20350;-78
2023/10/01 10:48:00;;;;;;;;;;;;;;;37.28;14.83;98962.13;5033937;28;20004;-79
2023/10/01 10:50:53;;;;;;;;;;;;;;;37.14;14.92;98961.94;5033699;28;19970;-79
2023/10/01 10:53:22;;;;;;;;;;;;;;;36.86;15.26;98952.69;5034885;28;19984;-77
2023/10/01 10:56:07;;;;;;;;;;;;;;;36.67;15.51;98957.97;5034045;28;19924;-79
2023/10/01 10:58:45;;;;;;;;;;;;;;;36.49;15.74;98959.47;5033578;28;19917;-78
2023/10/01 11:01:18;;;;;;;;;;;;;;;36.30;15.96;98953.91;5033786;28;19921;-78
2023/10/01 11:03:59;;;;;;;;;;;;;;;36.17;15.88;98950.69;5033377;28;19929;-79
2023/10/01 11:06:29;;;;;;;;;;;;;;;36.00;16.15;98964.63;5033655;28;19917;-78
2023/10/01 11:08:56;;;;;;;;;;;;;;;35.91;16.15;98960.06;5033556;28;19924;-77
2023/10/01 11:11:30;;;;;;;;;;;;;;;35.84;16.35;98950.31;5032655;28;20367;-78
2023/10/01 11:14:02;;;;;;;;;;;;;;;35.73;16.38;98967.69;5016754;28;20393;-79
2023/10/01 11:16:33;;;;;;;;;;;;;;;35.72;16.23;98960.63;5016487;28;20351;-80
2023/10/01 11:19:12;;;;;;;;;;;;;;;35.51;16.41;98952.56;5033760;28;19925;-77
2023/10/01 11:21:56;;;;;;;;;;;;;;;35.33;16.04;98947.75;5018133;28;20283;-78
2023/10/01 11:24:41;;;;;;;;;;;;;;;35.10;16.65;98952.63;5034268;28;19992;-78
2023/10/01 11:30:28;;;;;;;;;;;;;;;34.75;16.92;98946.16;5033220;28;19982;-77
2023/10/01 11:35:38;;;;;;;;;;;;;;;34.43;17.59;98960.75;5033060;28;20277;-79
2023/10/01 11:38:21;;;;;;;;;;;;;;;34.25;17.63;98948.53;5032951;28;20384;-78
2023/10/01 11:43:58;;;;;;;;;;;;;;;33.99;17.62;98946.78;5032319;28;19940;-78
2023/10/01 11:46:24;;;;;;;;;;;;;;;33.70;17.14;98931.78;5032104;28;19921;-79
2023/10/01 11:49:10;;;;;;;;;;;;;;;33.59;17.86;98943.63;5032872;28;19923;-78
2023/10/01 11:51:40;;;;;;;;;;;;;;;33.51;17.52;98938.69;5031501;28;20020;-78
2023/10/01 11:54:09;;;;;;;;;;;;;;;33.46;17.54;98927.84;5032063;28;20426;-78
2023/10/01 11:57:06;;;;;;;;;;;;;;;33.38;17.89;98923.75;5032444;28;19924;-79
2023/10/01 11:59:31;;;;;;;;;;;;;;;33.26;17.43;98934.00;5032556;28;19959;-76
2023/10/01 12:02:15;;;;;;;;;;;;;;;33.12;17.48;98929.00;5015787;28;20353;-78
2023/10/01 12:04:44;;;;;;;;;;;;;;;33.02;17.53;98914.59;5032573;28;19975;-79
2023/10/01 12:07:18;;;;;;;;;;;;;;;32.89;17.94;98913.16;5032607;28;19929;-78
2023/10/01 12:09:48;;;;;;;;;;;;;;;32.82;17.32;98902.56;5025120;28;19917;-75
2023/10/01 12:12:13;;;;;;;;;;;;;;;32.77;17.61;98921.44;5055730;28;19908;-78
2023/10/01 12:15:33;;;;;;;;;;;;;;;32.62;18.00;98916.69;5054890;28;19940;-78
2023/10/01 12:17:44;;;;;;;;;;;;;;;32.55;18.01;98918.81;5055715;28;19917;-78
2023/10/01 12:20:22;;;;;;;;;;;;;;;32.49;18.33;98909.81;5055108;28;19917;-78
2023/10/01 12:23:04;;;;;;;;;;;;;;;32.30;18.08;98906.69;5055658;28;19928;-78
2023/10/01 12:28:24;;;;;;;;;;;;;;;32.17;19.84;98907.09;5040449;28;19901;-75
2023/10/01 12:30:58;;;;;;;;;;;;;;;32.05;21.46;98908.00;5055104;28;19960;-80
2023/10/01 12:33:24;;;;;;;;;;;;;;;31.86;20.78;98906.72;5044114;28;19940;-75
2023/10/01 12:35:49;;;;;;;;;;;;;;;31.75;20.91;98903.09;5041080;28;20400;-81
2023/10/01 12:40:40;;;;;;;;;;;;;;;31.70;19.66;98903.03;5062046;28;19930;-77
2023/10/01 12:45:50;;;;;;;;;;;;;;;31.72;19.29;98893.63;5059865;28;20011;-79
2023/10/01 12:48:20;;;;;;;;;;;;;;;31.69;20.98;98890.59;5059886;28;19917;-80
2023/10/01 12:51:07;;;;;;;;;;;;;;;31.61;20.76;98893.75;5060430;28;19924;-78
2023/10/01 12:53:47;;;;;;;;;;;;;;;31.48;20.90;98895.72;5059137;28;19955;-83
2023/10/01 12:56:16;;;;;;;;;;;;;;;31.30;20.46;98887.94;5042432;28;19920;-80
2023/10/01 12:58:53;;;;;;;;;;;;;;;31.34;21.06;98891.75;5040419;28;20677;-77
2023/10/01 13:01:31;;;;;;;;;;;;;;;31.21;21.15;98880.25;5055883;28;19991;-78
2023/10/01 13:04:21;;;;;;;;;;;;;;;31.24;20.68;98897.03;5037027;28;20388;-82
2023/10/01 13:06:46;;;;;;;;;;;;;;;31.21;21.60;98899.13;5035690;28;19928;-76
2023/10/01 13:09:35;;;;;;;;;;;;;;;31.28;21.42;98888.19;5033654;28;19921;-76
2023/10/01 13:11:59;;;;;;;;;;;;;;;31.29;21.38;98889.81;5034390;28;20246;-76
2023/10/01 13:14:28;;;;;;;;;;;;;;;31.26;21.83;98892.19;5034077;28;19917;-76
2023/10/01 13:17:00;;;;;;;;;;;;;;;31.23;22.02;98890.00;5034331;28;19917;-78
2023/10/01 13:19:33;;;;;;;;;;;;;;;31.15;22.29;98892.06;5019716;28;20300;-75
2023/10/01 13:21:59;;;;;;;;;;;;;;;31.18;22.34;98890.75;5019444;28;19974;-75
2023/10/01 13:24:26;;;;;;;;;;;;;;;31.19;22.56;98890.50;5034111;28;19917;-74
2023/10/01 13:27:05;;;;;;;;;;;;;;;31.18;22.26;98885.34;5034291;28;19956;-76
2023/10/01 13:29:30;;;;;;;;;;;;;;;31.23;22.06;98887.28;5019575;28;19928;-76
2023/10/01 13:32:02;;;;;;;;;;;;;;;31.22;22.34;98881.09;5017942;28;19917;-75
2023/10/01 13:37:26;;;;;;;;;;;;;;;31.13;22.30;98886.09;5035554;28;20303;-75
2023/10/01 13:40:12;;;;;;;;;;;;;;;31.04;22.50;98879.47;5035632;28;20055;-74
2023/10/01 14:10:16;;;;;;;;;;;;;;;30.35;22.59;98890.44;4979904;28;19925;-76
2023/10/01 14:12:41;;;;;;;;;;;;;;;30.31;22.97;98890.13;4977641;28;19917;-86
2023/10/01 14:15:21;;;;;;;;;;;;;;;30.29;23.65;98884.16;4981963;28;19925;-86
2023/10/01 14:17:52;;;;;;;;;;;;;;;30.26;24.21;98890.03;4967047;28;19922;-82